Aviation Digital Data Service (ADDS)

Output produced by METARs form (0340 UTC 17 July 2018)
found at http://aviationweather.gov/adds/metars/
 
KRYY 170248Z AUTO 20003KT 10SM -RA FEW120 23/22 A3006 RMK AO2 LTG DSNT NE AND E TSE00 SLP899 P0002 60007 T02330217 53017
KRYY 162329Z 1700/1724 23004KT P6SM SCT040 BKN150 
     TEMPO 1700/1702 VRB15G25KT 3SM TSRA BKN025CB 
     FM170900 VRB03KT P6SM BKN008 BKN015 
     FM171400 25007KT P6SM SCT008 BKN015 OVC030 
     FM171600 28008KT P6SM VCSH BKN040 
     PROB30 1718/1724 3SM TSRA BR BKN025CB
       
KPUJ 170335Z AUTO 00000KT 10SM SCT044 21/ A3007 RMK AO2
KCNI 170315Z AUTO 00000KT 10SM -RA SCT019 SCT033 SCT050 23/22 A3008 RMK AO2
KPDK 170334Z AUTO 13003KT 9SM CLR 23/23 A3007 RMK AO2 LTG DSNT NE AND E P0001 T02280228
KPDK 162329Z 1700/1724 23005KT P6SM SCT040 BKN150 
     TEMPO 1700/1702 VRB15G25KT 3SM TSRA BKN025CB 
     FM170900 VRB03KT P6SM BKN008 BKN015 
     FM171400 25007KT P6SM SCT008 BKN015 OVC030 
     FM171600 28008KT P6SM VCSH BKN035 
     PROB30 1718/1724 3SM TSRA BR BKN025CB
       
KRMG 170253Z AUTO 00000KT 10SM SCT032 BKN045 OVC070 27/23 A3002 RMK AO2 SLP156 T02670228 53020 $
KATL 170252Z 16003KT 10SM -RA FEW015 BKN100 OVC150 23/22 A3006 RMK AO2 SLP169 TSE45 LTG DSNT NE P0003 60034 T02330217 51020
KATL 170136Z 1702/1806 23005KT P6SM SCT035 BKN150 
     TEMPO 1702/1703 3SM TSRA BKN025CB 
     FM170900 25004KT P6SM BKN008 BKN015 
     FM171400 25007KT P6SM SCT008 BKN015 OVC030 
     FM171600 28008KT P6SM VCSH BKN035 
     PROB30 1718/1724 3SM TSRA BR BKN025CB 
     FM180200 29006KT P6SM SCT040 BKN120
       
KFFC 170312Z AUTO 36003KT 8SM -RA FEW015 BKN110 25/23 A3006 RMK AO2 LTG DSNT NE AND E TSE06 P0001 T02500233
KGAD 170256Z AUTO 10SM FEW046 SCT055 25/24 A3003 RMK AO2 SLP168 T02500244 51013
KCHA 170253Z 24003KT 10SM FEW038 SCT048 SCT250 25/22 A3002 RMK AO2 SLP157 60001 T02500217 51018
KCHA 162326Z 1700/1724 VRB03KT P6SM VCSH SCT040 BKN250 
     FM170900 VRB02KT 3SM BR SCT005 BKN010 
     TEMPO 1710/1713 BKN005 
     FM171400 VRB03KT P6SM SCT010 BKN025 
     FM171600 VRB04KT P6SM SCT040 
     FM172000 24007KT P6SM VCTS BKN040CB
       
KDNN 170335Z AUTO 11004KT 10SM SCT008 BKN021 OVC037 22/22 A3007 RMK AO2 P0001 LTG DSNT SE
KAHN 170251Z AUTO 00000KT 9SM FEW070 23/23 A3003 RMK AO2 SLP162 T02330233 53007
KAHN 170313Z 1703/1724 VRB03KT P6SM SCT040 BKN150 
     TEMPO 1703/1705 4SM TSRA BR BKN025CB 
     FM170800 VRB03KT P6SM BKN008 OVC015 
     FM171000 VRB03KT 2SM BR BKN005 
     FM171400 26005KT P6SM SCT008 BKN015 OVC030 
     FM171600 27006KT P6SM VCSH BKN035 
     PROB30 1718/1724 3SM TSRA BR BKN025CB
       
KLZU 170338Z AUTO 07003KT 3SM +TSRA BR FEW006 BKN017 OVC065 22/22 A3009 RMK AO2 LTG DSNT N AND SE RAB00 CIG 011V024 P0082